Time;durP1;ratioP1;P1;durP2;ratioP2;P2;SDS_P1;SDS_P2;PMS_P1;PMS_P2;Temp;Humidity;BMP_temperature;BMP_pressure;BME280_temperature;BME280_humidity;BME280_pressure;Samples;Min_cycle;Max_cycle;Signal;HPM_P1;HPM_P2
2023/06/10 00:00:22;;;;;;;20.13;6.53;;;16.70;99.90;;;;;;4956312;29;20047;-79
2023/06/10 00:02:49;;;;;;;19.13;6.50;;;16.60;99.90;;;;;;4957497;28;20039;-78
2023/06/10 00:05:21;;;;;;;19.75;6.85;;;16.60;99.90;;;;;;4955817;29;20438;-79
2023/06/10 00:07:49;;;;;;;24.58;7.13;;;16.60;99.90;;;;;;4952930;29;20039;-79
2023/06/10 00:10:16;;;;;;;21.80;7.05;;;16.60;99.90;;;;;;4931845;29;20047;-79
2023/06/10 00:12:43;;;;;;;23.98;6.80;;;16.60;99.90;;;;;;4969628;28;20134;-78
2023/06/10 00:15:11;;;;;;;20.95;5.82;;;16.60;99.90;;;;;;4946706;29;20054;-79
2023/06/10 00:17:39;;;;;;;18.10;6.90;;;16.60;99.90;;;;;;4951916;29;20047;-79
2023/06/10 00:20:08;;;;;;;19.67;6.35;;;16.50;99.90;;;;;;4946640;29;20047;-78
2023/06/10 00:22:36;;;;;;;26.75;7.15;;;16.50;99.90;;;;;;4956104;29;20057;-79
2023/06/10 00:25:04;;;;;;;17.48;6.45;;;16.50;99.90;;;;;;4971248;28;20047;-80
2023/06/10 00:27:34;;;;;;;20.30;6.78;;;16.50;99.90;;;;;;4940765;29;20407;-80
2023/06/10 00:30:02;;;;;;;24.98;7.15;;;16.40;99.90;;;;;;4942581;29;20055;-79
2023/06/10 00:32:31;;;;;;;30.20;7.15;;;16.40;99.90;;;;;;4955772;28;20036;-80
2023/06/10 00:35:00;;;;;;;22.77;7.22;;;16.40;99.90;;;;;;4956078;29;20109;-80
2023/06/10 00:37:28;;;;;;;21.83;7.57;;;16.30;99.90;;;;;;4971122;28;20422;-80
2023/06/10 00:39:55;;;;;;;18.90;7.10;;;16.30;99.90;;;;;;4956983;28;20130;-80
2023/06/10 00:42:24;;;;;;;18.52;6.75;;;16.30;99.90;;;;;;4956307;29;20134;-79
2023/06/10 00:44:53;;;;;;;24.70;7.38;;;16.20;99.90;;;;;;4955041;29;20478;-80
2023/06/10 00:47:20;;;;;;;22.40;7.03;;;16.20;99.90;;;;;;4955729;29;20043;-80
2023/06/10 00:49:47;;;;;;;22.13;7.20;;;16.10;99.90;;;;;;4956116;29;20047;-80
2023/06/10 00:52:14;;;;;;;25.02;6.57;;;16.10;99.90;;;;;;4939487;29;20047;-79
2023/06/10 00:54:42;;;;;;;19.50;7.22;;;16.10;99.90;;;;;;4956839;28;20126;-79
2023/06/10 00:57:09;;;;;;;19.75;6.68;;;16.10;99.90;;;;;;4970922;28;20066;-80
2023/06/10 00:59:36;;;;;;;21.67;6.63;;;16.00;99.90;;;;;;4956895;28;20094;-79
2023/06/10 01:02:03;;;;;;;23.02;6.50;;;16.00;99.90;;;;;;4971891;28;20053;-79
2023/06/10 01:04:32;;;;;;;24.60;6.80;;;15.90;99.90;;;;;;4956203;28;20043;-79
2023/06/10 01:06:59;;;;;;;20.05;7.05;;;15.90;99.90;;;;;;4956003;29;20339;-79
2023/06/10 01:09:26;;;;;;;29.67;7.15;;;15.80;99.90;;;;;;4956082;29;20082;-79
2023/06/10 01:11:53;;;;;;;24.38;7.07;;;15.80;99.90;;;;;;4955219;29;20075;-79
2023/06/10 01:14:22;;;;;;;23.48;6.25;;;15.80;99.90;;;;;;4955574;29;20070;-80
2023/06/10 01:16:49;;;;;;;22.45;7.72;;;15.70;99.90;;;;;;4955008;29;20043;-79
2023/06/10 01:19:17;;;;;;;22.77;6.75;;;15.70;99.90;;;;;;4971670;28;20047;-79
2023/06/10 01:21:48;;;;;;;19.70;6.53;;;15.70;99.90;;;;;;4956735;28;20047;-79
2023/06/10 01:24:19;;;;;;;21.38;6.68;;;15.60;99.90;;;;;;4955274;29;20130;-80
2023/06/10 01:26:47;;;;;;;17.60;6.05;;;15.60;99.90;;;;;;4956062;28;20121;-80
2023/06/10 01:29:14;;;;;;;19.50;7.28;;;15.60;99.90;;;;;;4939483;29;20126;-79
2023/06/10 01:31:41;;;;;;;25.33;7.28;;;15.50;99.90;;;;;;4955238;29;20062;-79
2023/06/10 01:34:09;;;;;;;22.40;6.70;;;15.50;99.90;;;;;;4955547;29;20504;-79
2023/06/10 01:36:36;;;;;;;17.75;6.57;;;15.50;99.90;;;;;;4942006;29;20091;-79
2023/06/10 01:39:03;;;;;;;17.88;6.60;;;15.40;99.90;;;;;;4937629;29;20087;-79
2023/06/10 01:41:31;;;;;;;28.02;6.57;;;15.40;99.90;;;;;;4955292;29;20495;-78
2023/06/10 01:43:58;;;;;;;24.13;7.43;;;15.30;99.90;;;;;;4954934;29;20509;-79
2023/06/10 01:46:25;;;;;;;23.17;6.97;;;15.30;99.90;;;;;;4959391;28;20126;-79
2023/06/10 01:48:55;;;;;;;18.02;6.35;;;15.30;99.90;;;;;;4959030;29;20094;-79
2023/06/10 01:51:21;;;;;;;21.85;6.88;;;15.20;99.90;;;;;;4942394;29;20075;-79
2023/06/10 01:53:49;;;;;;;27.85;7.05;;;15.20;99.90;;;;;;4959218;29;20377;-79
2023/06/10 01:56:19;;;;;;;30.60;7.80;;;15.10;99.90;;;;;;4959939;28;20043;-79
2023/06/10 01:58:46;;;;;;;20.90;6.10;;;15.10;99.90;;;;;;4957756;29;20043;-79
2023/06/10 02:01:13;;;;;;;18.02;6.65;;;15.10;99.90;;;;;;4942579;29;20154;-80
2023/06/10 02:03:40;;;;;;;20.08;6.57;;;15.10;99.90;;;;;;4957858;29;20470;-79
2023/06/10 02:06:09;;;;;;;24.73;6.40;;;15.10;99.90;;;;;;4974588;28;20073;-79
2023/06/10 02:08:36;;;;;;;19.98;6.07;;;15.10;99.90;;;;;;4958278;29;20062;-79
2023/06/10 02:11:03;;;;;;;21.00;6.18;;;15.10;99.90;;;;;;4973719;28;20102;-80
2023/06/10 02:13:30;;;;;;;16.38;5.82;;;15.10;99.90;;;;;;4958421;29;20455;-79
2023/06/10 02:15:58;;;;;;;19.88;6.07;;;15.10;99.90;;;;;;4959353;28;20035;-80
2023/06/10 02:18:28;;;;;;;26.33;6.68;;;15.10;99.90;;;;;;4940491;29;20364;-80
2023/06/10 02:20:55;;;;;;;24.00;6.03;;;15.10;99.90;;;;;;4962077;28;20126;-79
2023/06/10 02:23:22;;;;;;;24.52;7.30;;;15.00;99.90;;;;;;4941860;29;20386;-79
2023/06/10 02:25:49;;;;;;;17.58;5.85;;;15.00;99.90;;;;;;4959198;29;20509;-78
2023/06/10 02:28:17;;;;;;;17.33;6.53;;;15.00;99.90;;;;;;4958263;29;20102;-79
2023/06/10 02:30:45;;;;;;;19.75;5.38;;;14.90;99.90;;;;;;4954153;29;20079;-79
2023/06/10 02:33:11;;;;;;;27.52;6.70;;;14.90;99.90;;;;;;4958101;29;20043;-79
2023/06/10 02:35:43;;;;;;;21.23;6.88;;;14.90;99.90;;;;;;4945404;29;20043;-79
2023/06/10 02:38:27;;;;;;;16.60;5.80;;;14.90;99.90;;;;;;4952533;29;20066;-79
2023/06/10 02:41:00;;;;;;;22.35;5.50;;;14.90;99.90;;;;;;4956263;29;20130;-80
2023/06/10 02:43:43;;;;;;;16.77;6.78;;;14.80;99.90;;;;;;4938633;29;20056;-78
2023/06/10 02:46:14;;;;;;;21.48;6.68;;;14.80;99.90;;;;;;4939234;29;20059;-79
2023/06/10 02:48:49;;;;;;;24.90;6.28;;;14.70;99.90;;;;;;4943026;29;20157;-79
2023/06/10 02:51:36;;;;;;;16.55;6.28;;;14.70;99.90;;;;;;4934037;29;20051;-79
2023/06/10 02:54:15;;;;;;;18.33;5.97;;;14.70;99.90;;;;;;4961712;28;20196;-78
2023/06/10 02:56:49;;;;;;;26.98;6.78;;;14.70;99.90;;;;;;4956783;28;20090;-80
2023/06/10 02:59:22;;;;;;;18.40;5.60;;;14.60;99.90;;;;;;4942804;29;20051;-80
2023/06/10 03:01:49;;;;;;;16.45;6.60;;;14.60;99.90;;;;;;4957509;29;20048;-79
2023/06/10 03:04:18;;;;;;;23.00;6.57;;;14.60;99.90;;;;;;4973416;28;20066;-80
2023/06/10 03:06:53;;;;;;;21.10;5.88;;;14.60;99.90;;;;;;4972613;28;20066;-80
2023/06/10 03:09:26;;;;;;;27.23;6.18;;;14.60;99.90;;;;;;4973959;28;20102;-80
2023/06/10 03:11:56;;;;;;;24.52;6.97;;;14.50;99.90;;;;;;4972479;28;20047;-80
2023/06/10 03:14:24;;;;;;;21.52;6.65;;;14.50;99.90;;;;;;4974444;28;20042;-79
2023/06/10 03:16:51;;;;;;;21.88;6.80;;;14.50;99.90;;;;;;4956611;29;20055;-80
2023/06/10 03:19:21;;;;;;;17.65;6.22;;;14.50;99.90;;;;;;4972863;28;20363;-80
2023/06/10 03:21:50;;;;;;;28.48;7.10;;;14.50;99.90;;;;;;4939847;29;20098;-80
2023/06/10 03:24:17;;;;;;;14.63;5.60;;;14.40;99.90;;;;;;4964960;28;20055;-80
2023/06/10 03:26:44;;;;;;;21.23;6.43;;;14.40;99.90;;;;;;4941434;29;20058;-80
2023/06/10 03:29:12;;;;;;;21.75;6.00;;;14.40;99.90;;;;;;4957102;29;20134;-80
2023/06/10 03:31:39;;;;;;;19.77;6.13;;;14.40;99.90;;;;;;4972389;28;20079;-80
2023/06/10 03:34:09;;;;;;;18.15;6.18;;;14.30;99.90;;;;;;4972759;28;20043;-80
2023/06/10 03:36:37;;;;;;;20.10;5.90;;;14.30;99.90;;;;;;4956907;29;20047;-80
2023/06/10 03:39:04;;;;;;;21.98;5.82;;;14.30;99.90;;;;;;4957348;29;20071;-80
2023/06/10 03:41:32;;;;;;;24.27;6.28;;;14.30;99.90;;;;;;4957188;29;20047;-80
2023/06/10 03:44:00;;;;;;;16.73;6.47;;;14.30;99.90;;;;;;4956149;29;20058;-80
2023/06/10 03:46:28;;;;;;;19.83;5.88;;;14.30;99.90;;;;;;4941027;29;20381;-79
2023/06/10 03:48:55;;;;;;;20.67;6.20;;;14.30;99.90;;;;;;4956781;29;20063;-80
2023/06/10 03:51:22;;;;;;;23.00;6.22;;;14.20;99.90;;;;;;4954059;29;20039;-80
2023/06/10 03:53:50;;;;;;;21.40;6.25;;;14.20;99.90;;;;;;4956960;29;20355;-80
2023/06/10 03:56:16;;;;;;;19.95;6.45;;;14.20;99.90;;;;;;4972722;28;20039;-80
2023/06/10 03:58:43;;;;;;;22.17;6.13;;;14.20;99.90;;;;;;4939171;29;20036;-80
2023/06/10 04:01:13;;;;;;;19.45;6.50;;;14.20;99.90;;;;;;4953848;29;20039;-79
2023/06/10 04:03:41;;;;;;;17.13;6.22;;;14.20;99.90;;;;;;4963528;28;20045;-79
2023/06/10 04:06:09;;;;;;;18.95;6.38;;;14.20;99.90;;;;;;4940731;29;20043;-80
2023/06/10 04:08:36;;;;;;;18.27;5.63;;;14.20;99.90;;;;;;4955769;28;20367;-80
2023/06/10 04:11:03;;;;;;;22.52;6.75;;;14.10;99.90;;;;;;4939936;29;20419;-80
2023/06/10 04:13:30;;;;;;;16.58;6.22;;;14.10;99.90;;;;;;4940844;29;20043;-80
2023/06/10 04:18:46;;;;;;;20.80;6.13;;;14.10;99.90;;;;;;4936467;29;20114;-80
2023/06/10 04:21:14;;;;;;;17.23;5.65;;;14.20;99.90;;;;;;4962391;28;20039;-80
2023/06/10 04:23:41;;;;;;;20.98;6.45;;;14.20;99.90;;;;;;4939659;29;20047;-79
2023/06/10 04:26:12;;;;;;;16.52;5.35;;;14.20;99.90;;;;;;4940814;29;20138;-79
2023/06/10 04:28:39;;;;;;;23.25;7.25;;;14.20;99.90;;;;;;4955968;29;20051;-80
2023/06/10 04:31:06;;;;;;;18.52;6.57;;;14.20;99.90;;;;;;4940274;29;20043;-80
2023/06/10 04:33:33;;;;;;;18.92;6.43;;;14.20;99.90;;;;;;4955683;29;20137;-80
2023/06/10 04:36:05;;;;;;;24.85;6.95;;;14.30;99.90;;;;;;4956173;29;20110;-80
2023/06/10 04:38:32;;;;;;;17.98;6.22;;;14.30;99.90;;;;;;4955379;29;20047;-80
2023/06/10 04:40:59;;;;;;;22.58;7.18;;;14.30;99.90;;;;;;4940135;29;20098;-80
2023/06/10 04:43:30;;;;;;;18.40;6.13;;;14.30;99.90;;;;;;4940010;29;20397;-80
2023/06/10 04:46:00;;;;;;;15.23;6.00;;;14.40;99.90;;;;;;4955971;29;20066;-80
2023/06/10 04:48:28;;;;;;;21.40;6.28;;;14.40;99.90;;;;;;4956194;29;20381;-80
2023/06/10 04:50:56;;;;;;;21.92;6.57;;;14.50;99.90;;;;;;4955533;29;20048;-80
2023/06/10 04:53:23;;;;;;;18.58;6.95;;;14.60;99.90;;;;;;4956222;29;20066;-80
2023/06/10 04:55:52;;;;;;;17.75;6.20;;;14.70;99.90;;;;;;4939898;29;20062;-80
2023/06/10 04:58:19;;;;;;;18.00;5.88;;;14.70;99.90;;;;;;4954782;29;20054;-80
2023/06/10 05:00:46;;;;;;;19.13;6.00;;;14.80;99.90;;;;;;4939866;29;20125;-80
2023/06/10 05:03:13;;;;;;;15.32;5.97;;;14.90;99.90;;;;;;4940288;29;20043;-79
2023/06/10 05:05:41;;;;;;;21.50;7.13;;;15.00;99.90;;;;;;4955458;29;20055;-80
2023/06/10 05:08:08;;;;;;;19.70;6.50;;;15.00;99.90;;;;;;4939898;29;20055;-80
2023/06/10 05:10:35;;;;;;;17.98;6.22;;;15.10;99.90;;;;;;4955253;29;20082;-80
2023/06/10 05:13:03;;;;;;;22.95;6.57;;;15.20;99.90;;;;;;4940305;29;20046;-80
2023/06/10 05:18:15;;;;;;;17.98;6.03;;;15.30;99.90;;;;;;4955113;29;20138;-80
2023/06/10 05:20:42;;;;;;;23.15;6.78;;;15.40;99.90;;;;;;4959281;28;20043;-80
2023/06/10 05:23:09;;;;;;;16.67;5.97;;;15.50;99.90;;;;;;4943806;29;20072;-80
2023/06/10 05:25:36;;;;;;;21.98;6.57;;;15.60;99.90;;;;;;4959254;29;20062;-79
2023/06/10 05:28:03;;;;;;;16.70;6.28;;;15.70;99.90;;;;;;4960300;29;20466;-80
2023/06/10 05:30:29;;;;;;;18.13;6.60;;;15.70;99.90;;;;;;4958744;29;20059;-80
2023/06/10 05:32:57;;;;;;;20.80;6.38;;;15.90;99.90;;;;;;4960432;29;20058;-80
2023/06/10 05:35:24;;;;;;;30.83;6.80;;;15.90;99.90;;;;;;4943880;29;20086;-80
2023/06/10 05:37:51;;;;;;;22.35;6.72;;;16.00;99.90;;;;;;4958407;29;20381;-80
2023/06/10 05:40:18;;;;;;;16.15;5.97;;;16.00;99.90;;;;;;4943553;29;20047;-80
2023/06/10 05:42:45;;;;;;;20.50;5.93;;;16.10;99.90;;;;;;4959315;29;20067;-80
2023/06/10 05:45:13;;;;;;;18.65;6.00;;;16.30;99.90;;;;;;4958435;29;20051;-80
2023/06/10 05:47:40;;;;;;;23.83;6.50;;;16.40;99.90;;;;;;4942852;29;20121;-80
2023/06/10 05:50:08;;;;;;;21.92;6.97;;;16.50;99.90;;;;;;4951359;28;20078;-79
2023/06/10 05:52:35;;;;;;;22.52;7.32;;;16.60;99.90;;;;;;4959476;28;20047;-80
2023/06/10 05:55:02;;;;;;;16.58;5.82;;;16.70;99.90;;;;;;4974749;28;20047;-79
2023/06/10 05:57:28;;;;;;;22.90;7.72;;;16.80;99.90;;;;;;4957620;29;20118;-79
2023/06/10 05:59:55;;;;;;;23.27;7.00;;;16.80;99.90;;;;;;4957011;28;20066;-80
2023/06/10 06:02:22;;;;;;;21.33;7.28;;;17.00;99.90;;;;;;4956671;29;20047;-79
2023/06/10 06:04:49;;;;;;;15.63;6.75;;;17.00;99.90;;;;;;4958962;29;20047;-79
2023/06/10 06:07:16;;;;;;;17.23;6.70;;;17.10;99.90;;;;;;4974436;28;20055;-79
2023/06/10 06:09:43;;;;;;;19.42;6.63;;;17.10;99.90;;;;;;4975050;28;20516;-79
2023/06/10 06:12:10;;;;;;;21.52;7.13;;;17.20;99.90;;;;;;4958604;29;20069;-80
2023/06/10 06:14:38;;;;;;;23.23;6.82;;;17.30;99.90;;;;;;4959502;28;20050;-79
2023/06/10 06:17:12;;;;;;;17.58;6.85;;;17.50;99.90;;;;;;4957631;29;20053;-79
2023/06/10 06:19:43;;;;;;;25.48;7.28;;;17.60;99.90;;;;;;4974072;28;20130;-79
2023/06/10 06:22:13;;;;;;;15.82;6.93;;;17.80;99.90;;;;;;4958529;29;20049;-79
2023/06/10 06:24:40;;;;;;;20.02;7.32;;;18.00;99.90;;;;;;4957029;29;20047;-79
2023/06/10 06:27:07;;;;;;;18.05;7.20;;;18.20;99.90;;;;;;4957716;29;20047;-79
2023/06/10 06:29:34;;;;;;;25.38;7.18;;;18.30;99.90;;;;;;4974026;28;20059;-79
2023/06/10 06:32:01;;;;;;;18.92;7.28;;;18.40;99.90;;;;;;4957697;28;20083;-79
2023/06/10 06:34:30;;;;;;;23.00;8.20;;;18.50;99.90;;;;;;4975298;28;20126;-79
2023/06/10 06:36:57;;;;;;;26.20;8.25;;;18.60;99.90;;;;;;4958767;28;20521;-78
2023/06/10 06:39:24;;;;;;;25.35;8.85;;;18.60;99.90;;;;;;4962112;29;20354;-79
2023/06/10 06:41:51;;;;;;;23.83;7.93;;;18.70;99.90;;;;;;4960196;29;20047;-80
2023/06/10 06:47:12;;;;;;;21.15;7.38;;;19.00;99.90;;;;;;4959260;29;20071;-80
2023/06/10 06:49:38;;;;;;;25.98;8.57;;;19.20;99.90;;;;;;4974587;28;20043;-79
2023/06/10 06:52:05;;;;;;;22.23;7.97;;;19.30;99.90;;;;;;4973322;28;20386;-80
2023/06/10 06:54:32;;;;;;;23.60;7.97;;;19.40;99.90;;;;;;4958992;28;20047;-78
2023/06/10 06:56:59;;;;;;;26.83;8.77;;;19.30;99.90;;;;;;4956737;28;20040;-79
2023/06/10 06:59:28;;;;;;;27.23;9.20;;;19.40;99.90;;;;;;4957018;29;20466;-79
2023/06/10 07:01:55;;;;;;;24.30;8.60;;;19.50;99.90;;;;;;4972216;28;20486;-80
2023/06/10 07:04:22;;;;;;;22.42;8.18;;;19.70;99.90;;;;;;4956474;29;20378;-80
2023/06/10 07:06:48;;;;;;;23.98;9.90;;;19.70;99.90;;;;;;4957067;29;20129;-80
2023/06/10 07:09:15;;;;;;;22.38;8.02;;;19.90;99.90;;;;;;4957906;28;20106;-79
2023/06/10 07:11:43;;;;;;;25.48;8.73;;;20.10;99.90;;;;;;4955784;29;20051;-79
2023/06/10 07:14:10;;;;;;;20.80;8.65;;;20.20;99.90;;;;;;4957362;29;20118;-79
2023/06/10 07:16:36;;;;;;;25.92;9.07;;;20.30;99.90;;;;;;4971735;28;20363;-80
2023/06/10 07:19:03;;;;;;;20.48;9.27;;;20.40;99.90;;;;;;4972863;28;20050;-80
2023/06/10 07:21:33;;;;;;;21.02;8.38;;;20.50;99.90;;;;;;4956573;29;20157;-82
2023/06/10 07:24:02;;;;;;;24.20;9.87;;;20.60;99.90;;;;;;4956422;28;20129;-79
2023/06/10 07:26:29;;;;;;;22.13;9.55;;;20.70;99.90;;;;;;4957539;29;20735;-79
2023/06/10 07:28:56;;;;;;;20.70;9.32;;;20.90;99.90;;;;;;4940710;29;20460;-81
2023/06/10 07:31:23;;;;;;;31.52;9.77;;;21.00;99.90;;;;;;4939799;29;20051;-80
2023/06/10 07:33:50;;;;;;;24.33;9.07;;;21.10;99.90;;;;;;4956626;29;20454;-79
2023/06/10 07:36:17;;;;;;;23.30;9.52;;;21.20;99.90;;;;;;4956622;29;20031;-79
2023/06/10 07:38:43;;;;;;;20.48;9.30;;;21.20;99.90;;;;;;4953268;29;20047;-79
2023/06/10 07:41:11;;;;;;;26.15;8.18;;;21.30;99.90;;;;;;4955956;28;20054;-79
2023/06/10 07:43:38;;;;;;;22.92;9.35;;;21.50;99.90;;;;;;4971093;28;20114;-80
2023/06/10 07:46:05;;;;;;;22.23;9.00;;;21.80;99.90;;;;;;4955791;29;20047;-80
2023/06/10 07:48:34;;;;;;;23.63;9.65;;;21.90;99.90;;;;;;4957348;28;20114;-79
2023/06/10 07:51:04;;;;;;;20.02;8.65;;;22.00;99.90;;;;;;4954780;29;20048;-79
2023/06/10 07:53:31;;;;;;;20.63;8.73;;;22.20;99.90;;;;;;4949495;28;20133;-79
2023/06/10 07:55:58;;;;;;;23.58;9.60;;;22.30;99.90;;;;;;4956559;29;20043;-79
2023/06/10 07:58:24;;;;;;;27.52;9.88;;;22.40;99.90;;;;;;4954586;29;20474;-79
2023/06/10 08:00:51;;;;;;;21.35;9.25;;;22.40;99.90;;;;;;4950646;28;20051;-80
2023/06/10 08:03:18;;;;;;;28.90;9.02;;;22.50;99.90;;;;;;4955547;29;20402;-79
2023/06/10 08:05:45;;;;;;;28.42;9.73;;;22.60;99.90;;;;;;4939874;29;20157;-80
2023/06/10 08:08:12;;;;;;;23.60;8.75;;;22.70;99.90;;;;;;4954642;29;20054;-80
2023/06/10 08:10:38;;;;;;;22.25;8.90;;;22.90;99.90;;;;;;4954782;29;20047;-80
2023/06/10 08:13:05;;;;;;;24.13;9.88;;;23.10;99.90;;;;;;4939866;29;20454;-80
2023/06/10 08:15:32;;;;;;;27.27;11.82;;;23.10;99.90;;;;;;4949379;29;20043;-80
2023/06/10 08:18:07;;;;;;;23.25;11.07;;;23.20;99.90;;;;;;4953609;29;20047;-81
2023/06/10 08:20:34;;;;;;;22.40;10.60;;;23.50;99.90;;;;;;4967735;28;20039;-80
2023/06/10 08:23:01;;;;;;;26.35;10.10;;;23.60;99.90;;;;;;4937200;29;20075;-80
2023/06/10 08:25:27;;;;;;;24.45;10.93;;;23.70;99.90;;;;;;4971936;28;20118;-79
2023/06/10 08:27:56;;;;;;;23.38;10.88;;;23.70;99.90;;;;;;4956872;28;20071;-79
2023/06/10 08:30:23;;;;;;;26.08;10.30;;;23.80;99.90;;;;;;4955519;28;20134;-80
2023/06/10 08:32:49;;;;;;;23.63;12.90;;;24.00;99.90;;;;;;4956596;29;20083;-80
2023/06/10 08:35:16;;;;;;;26.05;11.50;;;24.20;99.90;;;;;;4956433;28;20466;-79
2023/06/10 08:37:43;;;;;;;22.70;11.75;;;24.20;99.90;;;;;;4954375;29;20070;-80
2023/06/10 08:40:10;;;;;;;23.33;12.88;;;24.30;99.90;;;;;;4955636;29;20058;-80
2023/06/10 08:42:39;;;;;;;23.13;12.25;;;24.40;99.90;;;;;;4955549;29;20047;-80
2023/06/10 08:45:06;;;;;;;26.35;11.43;;;24.40;99.90;;;;;;4970524;28;20134;-79
2023/06/10 08:47:35;;;;;;;23.70;11.65;;;24.40;99.90;;;;;;4955135;29;20438;-79
2023/06/10 08:50:03;;;;;;;22.05;12.13;;;24.50;99.90;;;;;;4955362;28;20126;-79
2023/06/10 08:52:30;;;;;;;21.35;12.43;;;24.60;99.90;;;;;;4955585;29;20039;-80
2023/06/10 08:54:58;;;;;;;22.10;13.27;;;24.70;99.90;;;;;;4955764;28;20055;-79
2023/06/10 08:57:25;;;;;;;29.10;14.40;;;24.80;99.90;;;;;;4969543;28;20098;-80
2023/06/10 08:59:52;;;;;;;22.58;12.15;;;24.90;99.90;;;;;;4955079;29;20051;-79
2023/06/10 09:02:19;;;;;;;24.73;12.18;;;25.10;99.90;;;;;;4956221;28;20043;-80
2023/06/10 09:04:46;;;;;;;25.98;12.63;;;25.20;99.90;;;;;;4954409;29;20373;-80
2023/06/10 09:07:14;;;;;;;19.73;12.13;;;25.20;99.90;;;;;;4954652;29;20172;-80
2023/06/10 09:09:40;;;;;;;23.83;14.02;;;25.30;99.90;;;;;;4956366;28;20051;-79
2023/06/10 09:12:07;;;;;;;23.58;11.55;;;25.40;99.90;;;;;;4970159;28;20047;-80
2023/06/10 09:14:34;;;;;;;22.05;12.80;;;25.60;99.90;;;;;;4956159;28;20474;-80
2023/06/10 09:17:01;;;;;;;24.50;11.70;;;25.80;99.90;;;;;;4953847;29;20050;-80
2023/06/10 09:19:27;;;;;;;20.92;12.60;;;25.90;99.90;;;;;;4971296;28;20039;-80
2023/06/10 09:21:54;;;;;;;24.55;11.80;;;26.10;99.90;;;;;;4956182;28;20122;-80
2023/06/10 09:24:21;;;;;;;22.60;10.93;;;26.20;99.90;;;;;;4955213;28;20047;-80
2023/06/10 09:26:48;;;;;;;22.40;13.00;;;26.20;99.90;;;;;;4954953;29;20158;-80
2023/06/10 09:29:15;;;;;;;26.48;12.00;;;26.20;99.90;;;;;;4954844;29;20070;-80
2023/06/10 09:31:42;;;;;;;17.35;11.73;;;26.40;99.90;;;;;;4955038;29;20434;-80
2023/06/10 09:34:08;;;;;;;23.48;12.18;;;26.60;99.90;;;;;;4955053;29;20411;-80
2023/06/10 09:36:35;;;;;;;18.50;11.80;;;26.80;99.90;;;;;;4955734;29;20102;-80
2023/06/10 09:39:02;;;;;;;26.65;12.02;;;26.90;99.90;;;;;;4955800;28;20054;-80
2023/06/10 09:41:29;;;;;;;22.83;11.75;;;26.90;99.90;;;;;;4955991;29;20067;-80
2023/06/10 09:43:56;;;;;;;16.83;11.25;;;26.90;99.90;;;;;;4954853;29;20530;-80
2023/06/10 09:46:22;;;;;;;17.48;11.88;;;27.10;99.90;;;;;;4938416;29;20082;-80
2023/06/10 09:48:49;;;;;;;20.30;11.10;;;27.20;99.90;;;;;;4954700;29;20061;-80
2023/06/10 09:51:19;;;;;;;20.10;12.02;;;27.30;99.90;;;;;;4954751;29;20043;-80
2023/06/10 09:53:46;;;;;;;21.23;12.57;;;27.50;99.90;;;;;;4954858;29;20501;-80
2023/06/10 09:56:12;;;;;;;16.42;11.50;;;27.50;99.90;;;;;;4955338;29;20513;-80
2023/06/10 09:58:43;;;;;;;20.92;11.07;;;27.70;99.90;;;;;;4954922;28;20047;-80
2023/06/10 10:01:09;;;;;;;14.27;9.33;;;28.00;99.90;;;;;;4955730;29;20533;-80
2023/06/10 10:03:36;;;;;;;16.77;8.60;;;28.20;99.90;;;;;;4955486;29;20050;-80
2023/06/10 10:06:03;;;;;;;15.07;9.15;;;28.40;99.90;;;;;;4954831;28;20083;-80
2023/06/10 10:08:30;;;;;;;28.48;10.88;;;28.60;99.90;;;;;;4958334;29;20050;-80
2023/06/10 10:10:56;;;;;;;18.60;9.77;;;28.80;99.90;;;;;;4958269;29;20047;-81
2023/06/10 10:13:23;;;;;;;13.93;10.10;;;28.80;99.90;;;;;;4959034;28;20039;-81
2023/06/10 10:15:50;;;;;;;17.80;10.10;;;29.00;99.90;;;;;;4958789;29;20078;-80
2023/06/10 10:18:17;;;;;;;15.75;9.00;;;29.20;99.90;;;;;;4957135;29;20043;-81
2023/06/10 10:20:44;;;;;;;16.05;9.02;;;29.30;99.90;;;;;;4959012;28;20039;-80
2023/06/10 10:23:10;;;;;;;18.92;8.55;;;29.40;99.90;;;;;;4958576;29;20067;-81
2023/06/10 10:25:37;;;;;;;14.43;8.32;;;29.60;99.90;;;;;;4957727;29;20414;-81
2023/06/10 10:28:04;;;;;;;14.65;9.20;;;29.90;99.90;;;;;;4957637;29;20441;-80
2023/06/10 10:30:31;;;;;;;14.02;8.40;;;30.10;99.90;;;;;;4955201;28;20078;-80
2023/06/10 10:32:58;;;;;;;14.07;8.32;;;30.20;99.90;;;;;;4958500;29;20047;-80
2023/06/10 10:35:25;;;;;;;17.13;8.82;;;30.40;99.90;;;;;;4959116;28;20053;-80
2023/06/10 10:37:52;;;;;;;18.02;8.60;;;30.40;99.90;;;;;;4956703;29;20114;-81
2023/06/10 10:40:19;;;;;;;22.02;8.82;;;30.50;99.90;;;;;;4974464;28;20373;-82
2023/06/10 10:42:46;;;;;;;14.85;8.60;;;30.80;99.90;;;;;;4957595;29;20043;-80
2023/06/10 10:45:16;;;;;;;16.23;8.20;;;31.00;99.90;;;;;;4957829;28;20370;-81
2023/06/10 10:47:43;;;;;;;29.05;8.80;;;31.20;99.90;;;;;;4944544;28;20044;-81
2023/06/10 10:50:10;;;;;;;15.27;8.57;;;31.20;99.90;;;;;;4938818;29;20055;-80
2023/06/10 10:52:40;;;;;;;12.25;8.45;;;31.20;99.90;;;;;;4944013;29;20071;-80
2023/06/10 10:55:07;;;;;;;16.33;8.80;;;31.40;99.90;;;;;;4957882;28;20541;-81
2023/06/10 10:57:35;;;;;;;13.80;8.85;;;31.60;99.90;;;;;;4949443;29;20042;-80
2023/06/10 11:00:02;;;;;;;15.82;8.75;;;31.70;99.90;;;;;;4973252;28;20114;-80
2023/06/10 11:02:29;;;;;;;16.65;8.20;;;31.90;99.90;;;;;;4958857;28;20110;-80
2023/06/10 11:04:56;;;;;;;15.10;8.82;;;32.00;99.90;;;;;;4957877;28;20047;-81
2023/06/10 11:07:24;;;;;;;13.65;8.55;;;32.30;99.10;;;;;;4958538;28;20056;-81
2023/06/10 11:09:50;;;;;;;17.27;8.55;;;32.30;98.20;;;;;;4958648;28;20049;-81
2023/06/10 11:12:17;;;;;;;12.95;8.75;;;32.50;99.40;;;;;;4956499;29;20110;-80
2023/06/10 11:14:45;;;;;;;19.05;9.35;;;32.60;98.80;;;;;;4958668;28;20422;-81
2023/06/10 11:17:12;;;;;;;17.98;8.75;;;32.70;97.70;;;;;;4957071;28;20382;-81
2023/06/10 11:19:40;;;;;;;14.07;8.30;;;32.90;97.60;;;;;;4973290;28;20497;-81
2023/06/10 11:22:07;;;;;;;11.13;7.38;;;33.20;97.50;;;;;;4958467;28;20102;-80
2023/06/10 11:24:35;;;;;;;11.45;7.70;;;33.60;96.50;;;;;;4956517;29;20058;-80
2023/06/10 11:27:02;;;;;;;20.75;8.05;;;33.70;95.80;;;;;;4957795;29;20047;-80
2023/06/10 11:29:29;;;;;;;12.68;7.45;;;33.50;93.90;;;;;;4957954;28;20097;-80
2023/06/10 11:31:55;;;;;;;13.57;7.40;;;33.70;94.00;;;;;;4956490;29;20062;-81
2023/06/10 11:34:23;;;;;;;13.70;7.90;;;33.90;93.90;;;;;;4958121;29;20051;-81
2023/06/10 11:36:50;;;;;;;16.15;8.75;;;34.20;94.20;;;;;;4940145;29;20156;-80
2023/06/10 11:39:17;;;;;;;14.00;7.80;;;34.60;92.60;;;;;;4957267;29;20419;-82
2023/06/10 11:41:44;;;;;;;13.38;8.35;;;34.70;91.90;;;;;;4956705;29;20078;-81
2023/06/10 11:44:13;;;;;;;14.80;7.97;;;34.60;90.70;;;;;;4955545;29;20039;-82
2023/06/10 11:46:45;;;;;;;13.52;8.50;;;34.70;91.70;;;;;;4937263;29;20036;-82
2023/06/10 11:49:18;;;;;;;15.35;9.30;;;34.70;90.50;;;;;;4950647;29;20050;-81
2023/06/10 11:51:51;;;;;;;14.85;8.20;;;34.40;90.30;;;;;;4956166;29;20043;-83
2023/06/10 11:57:13;;;;;;;16.73;8.40;;;34.40;90.00;;;;;;4956521;29;20105;-83
2023/06/10 11:59:43;;;;;;;14.80;9.88;;;34.30;90.70;;;;;;4972592;28;20079;-81
2023/06/10 12:02:09;;;;;;;13.25;7.93;;;34.40;90.20;;;;;;4972625;28;20471;-82
2023/06/10 12:07:09;;;;;;;14.27;8.40;;;35.00;90.20;;;;;;4956316;29;20105;-83
2023/06/10 12:09:36;;;;;;;14.52;8.75;;;35.30;90.10;;;;;;4956841;29;20066;-83
2023/06/10 12:12:03;;;;;;;17.67;9.35;;;35.30;87.80;;;;;;4956649;28;20043;-82
2023/06/10 12:17:02;;;;;;;18.13;9.48;;;35.40;87.70;;;;;;4956448;28;20410;-81
2023/06/10 12:19:29;;;;;;;14.07;8.38;;;35.80;85.20;;;;;;4957084;28;20050;-82
2023/06/10 12:21:56;;;;;;;15.90;8.77;;;35.70;84.50;;;;;;4972511;28;20151;-82
2023/06/10 12:27:11;;;;;;;13.57;8.75;;;35.80;83.20;;;;;;4957318;29;20055;-82
2023/06/10 12:29:37;;;;;;;15.57;8.23;;;35.50;82.50;;;;;;4955111;28;20077;-81
2023/06/10 12:32:07;;;;;;;13.00;8.48;;;35.70;82.30;;;;;;4956187;28;20110;-82
2023/06/10 12:34:35;;;;;;;13.45;7.85;;;35.60;79.40;;;;;;4940640;29;20047;-82
2023/06/10 12:37:04;;;;;;;11.77;7.72;;;35.60;81.80;;;;;;4955106;29;20482;-82
2023/06/10 12:39:30;;;;;;;14.57;8.20;;;35.90;80.70;;;;;;4956858;28;20106;-83
2023/06/10 12:41:57;;;;;;;11.00;8.05;;;36.10;78.50;;;;;;4955984;29;20122;-82
2023/06/10 12:44:24;;;;;;;10.13;6.97;;;36.20;78.40;;;;;;4939103;29;20054;-82
2023/06/10 12:46:51;;;;;;;15.15;7.82;;;36.60;78.90;;;;;;4940385;29;20410;-83
2023/06/10 12:49:17;;;;;;;15.45;8.00;;;36.50;76.10;;;;;;4956985;29;20043;-82
2023/06/10 12:51:44;;;;;;;11.80;7.68;;;36.20;76.60;;;;;;4955816;29;20451;-81
2023/06/10 12:54:13;;;;;;;14.85;8.27;;;36.30;77.40;;;;;;4957247;29;20454;-81
2023/06/10 12:56:40;;;;;;;11.00;7.18;;;36.40;76.80;;;;;;4955830;29;20086;-81